sensor_id;sensor_type;location;lat;lon;timestamp;P1;durP1;ratioP1;P2;durP2;ratioP2
3297;SDS011;1661;53.572;10.174;2023-02-28T00:00:08;11.80;;;6.83;;
3297;SDS011;1661;53.572;10.174;2023-02-28T00:02:37;12.57;;;6.30;;
3297;SDS011;1661;53.572;10.174;2023-02-28T00:05:04;11.20;;;5.87;;
3297;SDS011;1661;53.572;10.174;2023-02-28T00:07:35;7.73;;;5.53;;
3297;SDS011;1661;53.572;10.174;2023-02-28T00:10:04;7.27;;;5.97;;
3297;SDS011;1661;53.572;10.174;2023-02-28T00:12:32;11.37;;;6.70;;
3297;SDS011;1661;53.572;10.174;2023-02-28T00:14:59;12.70;;;7.63;;
3297;SDS011;1661;53.572;10.174;2023-02-28T00:17:27;14.10;;;7.63;;
3297;SDS011;1661;53.572;10.174;2023-02-28T00:19:56;12.80;;;8.20;;
3297;SDS011;1661;53.572;10.174;2023-02-28T00:22:29;8.57;;;7.10;;
3297;SDS011;1661;53.572;10.174;2023-02-28T00:24:59;10.03;;;5.90;;
3297;SDS011;1661;53.572;10.174;2023-02-28T00:27:29;13.13;;;7.33;;
3297;SDS011;1661;53.572;10.174;2023-02-28T00:29:56;14.50;;;7.00;;
3297;SDS011;1661;53.572;10.174;2023-02-28T00:32:23;9.40;;;6.70;;
3297;SDS011;1661;53.572;10.174;2023-02-28T00:34:51;5.67;;;5.03;;
3297;SDS011;1661;53.572;10.174;2023-02-28T00:37:18;8.47;;;6.27;;
3297;SDS011;1661;53.572;10.174;2023-02-28T00:39:45;11.17;;;6.77;;
3297;SDS011;1661;53.572;10.174;2023-02-28T00:42:12;16.60;;;8.43;;
3297;SDS011;1661;53.572;10.174;2023-02-28T00:44:40;17.40;;;9.57;;
3297;SDS011;1661;53.572;10.174;2023-02-28T00:47:07;12.17;;;8.33;;
3297;SDS011;1661;53.572;10.174;2023-02-28T00:49:34;16.10;;;8.67;;
3297;SDS011;1661;53.572;10.174;2023-02-28T00:52:02;12.23;;;6.57;;
3297;SDS011;1661;53.572;10.174;2023-02-28T00:54:29;12.20;;;7.50;;
3297;SDS011;1661;53.572;10.174;2023-02-28T00:56:56;10.80;;;7.43;;
3297;SDS011;1661;53.572;10.174;2023-02-28T00:59:22;10.90;;;7.23;;
3297;SDS011;1661;53.572;10.174;2023-02-28T01:01:49;14.70;;;8.37;;
3297;SDS011;1661;53.572;10.174;2023-02-28T01:04:16;11.70;;;8.10;;
3297;SDS011;1661;53.572;10.174;2023-02-28T01:06:43;12.70;;;5.30;;
3297;SDS011;1661;53.572;10.174;2023-02-28T01:09:11;6.47;;;4.57;;
3297;SDS011;1661;53.572;10.174;2023-02-28T01:11:38;7.37;;;5.20;;
3297;SDS011;1661;53.572;10.174;2023-02-28T01:14:06;5.20;;;4.17;;
3297;SDS011;1661;53.572;10.174;2023-02-28T01:16:34;6.70;;;5.20;;
3297;SDS011;1661;53.572;10.174;2023-02-28T01:19:12;7.83;;;4.97;;
3297;SDS011;1661;53.572;10.174;2023-02-28T01:21:39;5.63;;;5.03;;
3297;SDS011;1661;53.572;10.174;2023-02-28T01:24:06;6.30;;;4.77;;
3297;SDS011;1661;53.572;10.174;2023-02-28T01:26:43;9.30;;;5.33;;
3297;SDS011;1661;53.572;10.174;2023-02-28T01:29:10;6.63;;;6.03;;
3297;SDS011;1661;53.572;10.174;2023-02-28T01:31:36;8.27;;;5.87;;
3297;SDS011;1661;53.572;10.174;2023-02-28T01:34:03;7.43;;;5.67;;
3297;SDS011;1661;53.572;10.174;2023-02-28T01:36:30;7.00;;;5.50;;
3297;SDS011;1661;53.572;10.174;2023-02-28T01:38:57;5.77;;;4.37;;
3297;SDS011;1661;53.572;10.174;2023-02-28T01:41:27;10.70;;;4.70;;
3297;SDS011;1661;53.572;10.174;2023-02-28T01:44:06;4.00;;;3.70;;
3297;SDS011;1661;53.572;10.174;2023-02-28T01:46:54;10.40;;;4.17;;
3297;SDS011;1661;53.572;10.174;2023-02-28T01:49:20;6.95;;;5.80;;
3297;SDS011;1661;53.572;10.174;2023-02-28T01:51:48;5.67;;;4.30;;
3297;SDS011;1661;53.572;10.174;2023-02-28T01:54:17;6.33;;;4.50;;
3297;SDS011;1661;53.572;10.174;2023-02-28T01:56:47;10.17;;;5.10;;
3297;SDS011;1661;53.572;10.174;2023-02-28T01:59:23;9.27;;;4.97;;
3297;SDS011;1661;53.572;10.174;2023-02-28T02:01:54;8.43;;;3.90;;
3297;SDS011;1661;53.572;10.174;2023-02-28T02:04:21;7.50;;;4.53;;
3297;SDS011;1661;53.572;10.174;2023-02-28T02:06:52;6.85;;;4.35;;
3297;SDS011;1661;53.572;10.174;2023-02-28T02:09:19;4.73;;;4.13;;
3297;SDS011;1661;53.572;10.174;2023-02-28T02:11:46;3.58;;;3.28;;
3297;SDS011;1661;53.572;10.174;2023-02-28T02:14:27;7.00;;;4.00;;
3297;SDS011;1661;53.572;10.174;2023-02-28T02:17:08;6.15;;;4.72;;
3297;SDS011;1661;53.572;10.174;2023-02-28T02:22:50;6.82;;;4.03;;
3297;SDS011;1661;53.572;10.174;2023-02-28T02:25:31;4.55;;;4.15;;
3297;SDS011;1661;53.572;10.174;2023-02-28T02:28:17;4.70;;;4.00;;
3297;SDS011;1661;53.572;10.174;2023-02-28T02:34:31;4.22;;;3.83;;
3297;SDS011;1661;53.572;10.174;2023-02-28T02:37:09;4.88;;;3.60;;
3297;SDS011;1661;53.572;10.174;2023-02-28T02:39:58;4.50;;;3.70;;
3297;SDS011;1661;53.572;10.174;2023-02-28T02:42:31;5.00;;;4.45;;
3297;SDS011;1661;53.572;10.174;2023-02-28T02:45:06;4.80;;;3.90;;
3297;SDS011;1661;53.572;10.174;2023-02-28T02:47:35;3.50;;;3.30;;
3297;SDS011;1661;53.572;10.174;2023-02-28T02:50:08;5.22;;;4.50;;
3297;SDS011;1661;53.572;10.174;2023-02-28T02:52:44;4.30;;;3.90;;
3297;SDS011;1661;53.572;10.174;2023-02-28T02:55:14;4.00;;;3.50;;
3297;SDS011;1661;53.572;10.174;2023-02-28T02:57:45;4.28;;;3.88;;
3297;SDS011;1661;53.572;10.174;2023-02-28T03:00:15;4.65;;;4.25;;
3297;SDS011;1661;53.572;10.174;2023-02-28T03:02:45;9.48;;;3.60;;
3297;SDS011;1661;53.572;10.174;2023-02-28T03:05:16;6.15;;;3.92;;
3297;SDS011;1661;53.572;10.174;2023-02-28T03:07:45;4.13;;;3.65;;
3297;SDS011;1661;53.572;10.174;2023-02-28T03:13:13;6.60;;;3.78;;
3297;SDS011;1661;53.572;10.174;2023-02-28T03:15:57;3.90;;;3.60;;
3297;SDS011;1661;53.572;10.174;2023-02-28T03:18:36;7.28;;;4.28;;
3297;SDS011;1661;53.572;10.174;2023-02-28T03:21:18;4.07;;;3.65;;
3297;SDS011;1661;53.572;10.174;2023-02-28T03:23:52;5.65;;;3.92;;
3297;SDS011;1661;53.572;10.174;2023-02-28T03:26:28;9.77;;;4.50;;
3297;SDS011;1661;53.572;10.174;2023-02-28T03:28:59;3.97;;;3.67;;
3297;SDS011;1661;53.572;10.174;2023-02-28T03:31:32;4.68;;;3.13;;
3297;SDS011;1661;53.572;10.174;2023-02-28T03:34:04;6.70;;;4.80;;
3297;SDS011;1661;53.572;10.174;2023-02-28T03:36:37;7.35;;;4.55;;
3297;SDS011;1661;53.572;10.174;2023-02-28T03:39:09;5.93;;;3.88;;
3297;SDS011;1661;53.572;10.174;2023-02-28T03:41:40;5.65;;;5.15;;
3297;SDS011;1661;53.572;10.174;2023-02-28T03:44:13;5.55;;;3.95;;
3297;SDS011;1661;53.572;10.174;2023-02-28T03:46:46;4.15;;;3.78;;
3297;SDS011;1661;53.572;10.174;2023-02-28T03:49:19;7.30;;;4.15;;
3297;SDS011;1661;53.572;10.174;2023-02-28T03:51:52;4.75;;;4.30;;
3297;SDS011;1661;53.572;10.174;2023-02-28T03:54:31;10.23;;;5.43;;
3297;SDS011;1661;53.572;10.174;2023-02-28T03:57:02;3.22;;;2.95;;
3297;SDS011;1661;53.572;10.174;2023-02-28T03:59:43;5.30;;;3.75;;
3297;SDS011;1661;53.572;10.174;2023-02-28T04:02:13;8.52;;;4.40;;
3297;SDS011;1661;53.572;10.174;2023-02-28T04:04:40;6.05;;;4.40;;
3297;SDS011;1661;53.572;10.174;2023-02-28T04:07:14;3.50;;;3.30;;
3297;SDS011;1661;53.572;10.174;2023-02-28T04:09:42;4.20;;;3.80;;
3297;SDS011;1661;53.572;10.174;2023-02-28T04:12:19;3.85;;;3.65;;
3297;SDS011;1661;53.572;10.174;2023-02-28T04:14:48;4.20;;;3.58;;
3297;SDS011;1661;53.572;10.174;2023-02-28T04:17:14;6.53;;;4.68;;
3297;SDS011;1661;53.572;10.174;2023-02-28T04:19:41;4.32;;;3.92;;
3297;SDS011;1661;53.572;10.174;2023-02-28T04:22:11;6.47;;;4.03;;
3297;SDS011;1661;53.572;10.174;2023-02-28T04:24:43;12.07;;;4.45;;
3297;SDS011;1661;53.572;10.174;2023-02-28T04:27:10;4.38;;;4.07;;
3297;SDS011;1661;53.572;10.174;2023-02-28T04:29:37;4.95;;;4.45;;
3297;SDS011;1661;53.572;10.174;2023-02-28T04:32:04;4.47;;;3.95;;
3297;SDS011;1661;53.572;10.174;2023-02-28T04:34:31;4.63;;;4.20;;
3297;SDS011;1661;53.572;10.174;2023-02-28T04:36:58;4.03;;;3.55;;
3297;SDS011;1661;53.572;10.174;2023-02-28T04:39:25;11.75;;;4.10;;
3297;SDS011;1661;53.572;10.174;2023-02-28T04:41:53;5.15;;;4.65;;
3297;SDS011;1661;53.572;10.174;2023-02-28T04:44:20;4.70;;;3.58;;
3297;SDS011;1661;53.572;10.174;2023-02-28T04:46:48;6.28;;;5.00;;
3297;SDS011;1661;53.572;10.174;2023-02-28T04:49:18;11.93;;;6.60;;
3297;SDS011;1661;53.572;10.174;2023-02-28T04:51:45;18.90;;;8.60;;
3297;SDS011;1661;53.572;10.174;2023-02-28T04:54:11;25.98;;;14.68;;
3297;SDS011;1661;53.572;10.174;2023-02-28T04:56:40;16.55;;;11.00;;
3297;SDS011;1661;53.572;10.174;2023-02-28T04:59:09;12.25;;;8.40;;
3297;SDS011;1661;53.572;10.174;2023-02-28T05:01:35;10.32;;;7.18;;
3297;SDS011;1661;53.572;10.174;2023-02-28T05:04:03;10.40;;;5.82;;
3297;SDS011;1661;53.572;10.174;2023-02-28T05:06:33;9.93;;;6.35;;
3297;SDS011;1661;53.572;10.174;2023-02-28T05:09:00;6.70;;;5.32;;
3297;SDS011;1661;53.572;10.174;2023-02-28T05:11:28;7.28;;;4.82;;
3297;SDS011;1661;53.572;10.174;2023-02-28T05:13:59;6.15;;;4.38;;
3297;SDS011;1661;53.572;10.174;2023-02-28T05:16:28;8.15;;;4.85;;
3297;SDS011;1661;53.572;10.174;2023-02-28T05:18:54;5.35;;;4.22;;
3297;SDS011;1661;53.572;10.174;2023-02-28T05:21:25;6.10;;;5.40;;
3297;SDS011;1661;53.572;10.174;2023-02-28T05:23:54;6.32;;;4.47;;
3297;SDS011;1661;53.572;10.174;2023-02-28T05:26:23;4.32;;;3.92;;
3297;SDS011;1661;53.572;10.174;2023-02-28T05:28:52;4.53;;;4.07;;
3297;SDS011;1661;53.572;10.174;2023-02-28T05:31:19;10.68;;;4.13;;
3297;SDS011;1661;53.572;10.174;2023-02-28T05:33:48;4.82;;;4.32;;
3297;SDS011;1661;53.572;10.174;2023-02-28T05:36:15;9.52;;;3.97;;
3297;SDS011;1661;53.572;10.174;2023-02-28T05:38:41;11.13;;;4.80;;
3297;SDS011;1661;53.572;10.174;2023-02-28T05:41:09;4.70;;;4.32;;
3297;SDS011;1661;53.572;10.174;2023-02-28T05:43:37;5.57;;;4.60;;
3297;SDS011;1661;53.572;10.174;2023-02-28T05:46:04;8.35;;;4.35;;
3297;SDS011;1661;53.572;10.174;2023-02-28T05:48:31;5.00;;;4.45;;
3297;SDS011;1661;53.572;10.174;2023-02-28T05:51:00;5.15;;;3.53;;
3297;SDS011;1661;53.572;10.174;2023-02-28T05:53:27;6.45;;;4.85;;
3297;SDS011;1661;53.572;10.174;2023-02-28T05:55:57;4.93;;;3.60;;
3297;SDS011;1661;53.572;10.174;2023-02-28T05:58:24;9.05;;;4.82;;
3297;SDS011;1661;53.572;10.174;2023-02-28T06:00:55;4.38;;;3.78;;
3297;SDS011;1661;53.572;10.174;2023-02-28T06:03:23;5.70;;;4.32;;
3297;SDS011;1661;53.572;10.174;2023-02-28T06:05:50;5.47;;;4.88;;
3297;SDS011;1661;53.572;10.174;2023-02-28T06:08:18;6.70;;;5.05;;
3297;SDS011;1661;53.572;10.174;2023-02-28T06:10:45;5.38;;;4.78;;
3297;SDS011;1661;53.572;10.174;2023-02-28T06:13:11;14.10;;;5.95;;
3297;SDS011;1661;53.572;10.174;2023-02-28T06:15:41;7.90;;;5.13;;
3297;SDS011;1661;53.572;10.174;2023-02-28T06:18:08;8.75;;;4.70;;
3297;SDS011;1661;53.572;10.174;2023-02-28T06:20:34;4.85;;;4.35;;
3297;SDS011;1661;53.572;10.174;2023-02-28T06:23:01;5.10;;;4.60;;
3297;SDS011;1661;53.572;10.174;2023-02-28T06:25:30;10.38;;;6.68;;
3297;SDS011;1661;53.572;10.174;2023-02-28T06:27:56;7.03;;;4.13;;
3297;SDS011;1661;53.572;10.174;2023-02-28T06:30:23;5.22;;;4.40;;
3297;SDS011;1661;53.572;10.174;2023-02-28T06:32:53;6.20;;;5.10;;
3297;SDS011;1661;53.572;10.174;2023-02-28T06:35:20;7.20;;;4.90;;
3297;SDS011;1661;53.572;10.174;2023-02-28T06:37:47;8.38;;;5.70;;
3297;SDS011;1661;53.572;10.174;2023-02-28T06:40:14;6.35;;;5.75;;
3297;SDS011;1661;53.572;10.174;2023-02-28T06:42:42;12.65;;;8.27;;
3297;SDS011;1661;53.572;10.174;2023-02-28T06:45:11;29.90;;;16.92;;
3297;SDS011;1661;53.572;10.174;2023-02-28T06:47:39;81.50;;;39.40;;
3297;SDS011;1661;53.572;10.174;2023-02-28T06:50:11;119.93;;;45.38;;
3297;SDS011;1661;53.572;10.174;2023-02-28T06:52:38;87.95;;;41.17;;
3297;SDS011;1661;53.572;10.174;2023-02-28T06:55:06;65.75;;;31.33;;
3297;SDS011;1661;53.572;10.174;2023-02-28T06:57:34;44.72;;;20.85;;
3297;SDS011;1661;53.572;10.174;2023-02-28T07:00:06;32.92;;;17.67;;
3297;SDS011;1661;53.572;10.174;2023-02-28T07:02:35;21.83;;;13.55;;
3297;SDS011;1661;53.572;10.174;2023-02-28T07:05:02;16.98;;;11.75;;
3297;SDS011;1661;53.572;10.174;2023-02-28T07:07:30;18.17;;;11.52;;
3297;SDS011;1661;53.572;10.174;2023-02-28T07:09:57;16.33;;;10.20;;
3297;SDS011;1661;53.572;10.174;2023-02-28T07:12:24;15.55;;;10.85;;
3297;SDS011;1661;53.572;10.174;2023-02-28T07:14:53;16.38;;;11.93;;
3297;SDS011;1661;53.572;10.174;2023-02-28T07:17:22;18.65;;;9.57;;
3297;SDS011;1661;53.572;10.174;2023-02-28T07:19:49;11.95;;;10.40;;
3297;SDS011;1661;53.572;10.174;2023-02-28T07:22:15;14.27;;;9.77;;
3297;SDS011;1661;53.572;10.174;2023-02-28T07:24:42;12.45;;;9.30;;
3297;SDS011;1661;53.572;10.174;2023-02-28T07:27:09;11.13;;;8.98;;
3297;SDS011;1661;53.572;10.174;2023-02-28T07:29:36;11.23;;;8.52;;
3297;SDS011;1661;53.572;10.174;2023-02-28T07:32:03;17.13;;;7.18;;
3297;SDS011;1661;53.572;10.174;2023-02-28T07:34:31;14.25;;;9.48;;
3297;SDS011;1661;53.572;10.174;2023-02-28T07:37:01;17.02;;;9.40;;
3297;SDS011;1661;53.572;10.174;2023-02-28T07:39:28;10.98;;;7.65;;
3297;SDS011;1661;53.572;10.174;2023-02-28T07:41:55;18.33;;;9.95;;
3297;SDS011;1661;53.572;10.174;2023-02-28T07:44:22;16.48;;;11.68;;
3297;SDS011;1661;53.572;10.174;2023-02-28T07:46:49;17.45;;;10.93;;
3297;SDS011;1661;53.572;10.174;2023-02-28T07:49:15;13.88;;;9.88;;
3297;SDS011;1661;53.572;10.174;2023-02-28T07:51:43;14.27;;;7.53;;
3297;SDS011;1661;53.572;10.174;2023-02-28T07:54:10;13.82;;;6.65;;
3297;SDS011;1661;53.572;10.174;2023-02-28T07:56:37;9.55;;;8.27;;
3297;SDS011;1661;53.572;10.174;2023-02-28T07:59:04;11.57;;;7.30;;
3297;SDS011;1661;53.572;10.174;2023-02-28T08:01:31;12.10;;;8.45;;
3297;SDS011;1661;53.572;10.174;2023-02-28T08:03:57;11.10;;;7.90;;
3297;SDS011;1661;53.572;10.174;2023-02-28T08:06:25;6.60;;;6.00;;
3297;SDS011;1661;53.572;10.174;2023-02-28T08:08:53;14.27;;;8.10;;
3297;SDS011;1661;53.572;10.174;2023-02-28T08:11:21;8.18;;;6.75;;
3297;SDS011;1661;53.572;10.174;2023-02-28T08:13:48;12.95;;;9.75;;
3297;SDS011;1661;53.572;10.174;2023-02-28T08:16:15;10.07;;;8.50;;
3297;SDS011;1661;53.572;10.174;2023-02-28T08:18:47;14.13;;;7.90;;
3297;SDS011;1661;53.572;10.174;2023-02-28T08:21:14;8.20;;;6.60;;
3297;SDS011;1661;53.572;10.174;2023-02-28T08:23:41;7.07;;;6.07;;
3297;SDS011;1661;53.572;10.174;2023-02-28T08:26:09;11.50;;;8.03;;
3297;SDS011;1661;53.572;10.174;2023-02-28T08:28:36;11.73;;;7.30;;
3297;SDS011;1661;53.572;10.174;2023-02-28T08:31:08;10.17;;;7.13;;
3297;SDS011;1661;53.572;10.174;2023-02-28T08:33:36;13.50;;;8.03;;
3297;SDS011;1661;53.572;10.174;2023-02-28T08:36:06;6.53;;;5.80;;
3297;SDS011;1661;53.572;10.174;2023-02-28T08:38:33;9.20;;;6.60;;
3297;SDS011;1661;53.572;10.174;2023-02-28T08:41:05;11.33;;;6.30;;
3297;SDS011;1661;53.572;10.174;2023-02-28T08:43:40;11.07;;;7.83;;
3297;SDS011;1661;53.572;10.174;2023-02-28T08:46:08;9.10;;;6.43;;
3297;SDS011;1661;53.572;10.174;2023-02-28T08:48:38;8.77;;;6.80;;
3297;SDS011;1661;53.572;10.174;2023-02-28T08:51:06;13.63;;;7.83;;
3297;SDS011;1661;53.572;10.174;2023-02-28T08:53:35;8.80;;;5.80;;
3297;SDS011;1661;53.572;10.174;2023-02-28T08:56:03;22.50;;;12.70;;
3297;SDS011;1661;53.572;10.174;2023-02-28T08:58:31;14.33;;;7.73;;
3297;SDS011;1661;53.572;10.174;2023-02-28T09:01:06;7.70;;;5.50;;
3297;SDS011;1661;53.572;10.174;2023-02-28T09:03:36;13.13;;;7.20;;
3297;SDS011;1661;53.572;10.174;2023-02-28T09:06:04;12.10;;;6.13;;
3297;SDS011;1661;53.572;10.174;2023-02-28T09:08:34;7.23;;;4.43;;
3297;SDS011;1661;53.572;10.174;2023-02-28T09:11:02;10.83;;;6.07;;
3297;SDS011;1661;53.572;10.174;2023-02-28T09:13:29;11.13;;;6.07;;
3297;SDS011;1661;53.572;10.174;2023-02-28T09:15:57;11.80;;;5.63;;
3297;SDS011;1661;53.572;10.174;2023-02-28T09:18:28;10.27;;;4.30;;
3297;SDS011;1661;53.572;10.174;2023-02-28T09:20:56;7.10;;;4.60;;
3297;SDS011;1661;53.572;10.174;2023-02-28T09:23:23;5.90;;;4.30;;
3297;SDS011;1661;53.572;10.174;2023-02-28T09:25:51;10.67;;;3.90;;
3297;SDS011;1661;53.572;10.174;2023-02-28T09:28:19;5.10;;;3.87;;
3297;SDS011;1661;53.572;10.174;2023-02-28T09:30:47;21.70;;;9.53;;
3297;SDS011;1661;53.572;10.174;2023-02-28T09:33:16;5.43;;;3.33;;
3297;SDS011;1661;53.572;10.174;2023-02-28T09:35:47;3.43;;;2.77;;
3297;SDS011;1661;53.572;10.174;2023-02-28T09:38:14;8.67;;;3.60;;
3297;SDS011;1661;53.572;10.174;2023-02-28T09:40:48;2.97;;;2.57;;
3297;SDS011;1661;53.572;10.174;2023-02-28T09:43:20;3.53;;;3.23;;
3297;SDS011;1661;53.572;10.174;2023-02-28T09:45:51;6.13;;;3.70;;
3297;SDS011;1661;53.572;10.174;2023-02-28T09:48:24;3.50;;;2.47;;
3297;SDS011;1661;53.572;10.174;2023-02-28T09:51:05;2.50;;;2.30;;
3297;SDS011;1661;53.572;10.174;2023-02-28T09:53:41;5.00;;;3.00;;
3297;SDS011;1661;53.572;10.174;2023-02-28T09:56:09;3.33;;;3.03;;
3297;SDS011;1661;53.572;10.174;2023-02-28T09:58:39;3.70;;;2.50;;
3297;SDS011;1661;53.572;10.174;2023-02-28T10:01:12;3.60;;;2.03;;
3297;SDS011;1661;53.572;10.174;2023-02-28T10:03:48;3.23;;;2.20;;
3297;SDS011;1661;53.572;10.174;2023-02-28T10:06:23;3.00;;;2.10;;
3297;SDS011;1661;53.572;10.174;2023-02-28T10:09:00;4.03;;;1.60;;
3297;SDS011;1661;53.572;10.174;2023-02-28T10:11:29;5.27;;;1.83;;
3297;SDS011;1661;53.572;10.174;2023-02-28T10:14:00;5.50;;;3.23;;
3297;SDS011;1661;53.572;10.174;2023-02-28T10:16:34;2.30;;;2.10;;
3297;SDS011;1661;53.572;10.174;2023-02-28T10:19:03;2.70;;;1.83;;
3297;SDS011;1661;53.572;10.174;2023-02-28T10:21:36;4.00;;;1.20;;
3297;SDS011;1661;53.572;10.174;2023-02-28T10:24:18;3.10;;;1.87;;
3297;SDS011;1661;53.572;10.174;2023-02-28T10:26:52;5.97;;;2.40;;
3297;SDS011;1661;53.572;10.174;2023-02-28T10:29:26;2.87;;;2.17;;
3297;SDS011;1661;53.572;10.174;2023-02-28T10:31:54;2.80;;;2.60;;
3297;SDS011;1661;53.572;10.174;2023-02-28T10:34:22;2.87;;;2.53;;
3297;SDS011;1661;53.572;10.174;2023-02-28T10:36:51;4.33;;;3.00;;
3297;SDS011;1661;53.572;10.174;2023-02-28T10:39:39;3.27;;;2.97;;
3297;SDS011;1661;53.572;10.174;2023-02-28T10:42:18;2.90;;;2.47;;
3297;SDS011;1661;53.572;10.174;2023-02-28T10:44:53;2.70;;;2.50;;
3297;SDS011;1661;53.572;10.174;2023-02-28T10:47:32;3.60;;;2.93;;
3297;SDS011;1661;53.572;10.174;2023-02-28T10:50:01;3.77;;;3.20;;
3297;SDS011;1661;53.572;10.174;2023-02-28T10:52:33;3.50;;;2.47;;
3297;SDS011;1661;53.572;10.174;2023-02-28T10:55:14;4.73;;;2.53;;
3297;SDS011;1661;53.572;10.174;2023-02-28T10:57:46;3.60;;;2.17;;
3297;SDS011;1661;53.572;10.174;2023-02-28T11:00:14;3.80;;;1.80;;
3297;SDS011;1661;53.572;10.174;2023-02-28T11:02:42;3.03;;;2.50;;
3297;SDS011;1661;53.572;10.174;2023-02-28T11:05:25;3.00;;;2.50;;
3297;SDS011;1661;53.572;10.174;2023-02-28T11:08:01;2.40;;;2.13;;
3297;SDS011;1661;53.572;10.174;2023-02-28T11:10:37;4.67;;;2.47;;
3297;SDS011;1661;53.572;10.174;2023-02-28T11:13:04;2.40;;;2.20;;
3297;SDS011;1661;53.572;10.174;2023-02-28T11:15:32;2.80;;;2.47;;
3297;SDS011;1661;53.572;10.174;2023-02-28T11:18:00;4.90;;;3.00;;
3297;SDS011;1661;53.572;10.174;2023-02-28T11:20:33;2.90;;;2.30;;
3297;SDS011;1661;53.572;10.174;2023-02-28T11:23:10;2.80;;;2.30;;
3297;SDS011;1661;53.572;10.174;2023-02-28T11:25:40;4.27;;;2.83;;
3297;SDS011;1661;53.572;10.174;2023-02-28T11:28:28;3.60;;;2.17;;
3297;SDS011;1661;53.572;10.174;2023-02-28T11:31:02;6.00;;;2.77;;
3297;SDS011;1661;53.572;10.174;2023-02-28T11:33:40;5.57;;;2.07;;
3297;SDS011;1661;53.572;10.174;2023-02-28T11:36:11;2.20;;;2.00;;
3297;SDS011;1661;53.572;10.174;2023-02-28T11:38:41;3.13;;;2.60;;
3297;SDS011;1661;53.572;10.174;2023-02-28T11:41:16;1.63;;;1.53;;
3297;SDS011;1661;53.572;10.174;2023-02-28T11:43:58;4.27;;;2.50;;
3297;SDS011;1661;53.572;10.174;2023-02-28T11:46:35;4.73;;;2.40;;
3297;SDS011;1661;53.572;10.174;2023-02-28T11:49:12;4.20;;;2.50;;
3297;SDS011;1661;53.572;10.174;2023-02-28T11:51:47;2.60;;;2.33;;
3297;SDS011;1661;53.572;10.174;2023-02-28T11:54:24;3.90;;;2.80;;
3297;SDS011;1661;53.572;10.174;2023-02-28T11:57:00;2.37;;;2.20;;
3297;SDS011;1661;53.572;10.174;2023-02-28T11:59:38;2.27;;;1.57;;
3297;SDS011;1661;53.572;10.174;2023-02-28T12:02:22;3.03;;;2.40;;
3297;SDS011;1661;53.572;10.174;2023-02-28T12:04:56;3.97;;;2.13;;
3297;SDS011;1661;53.572;10.174;2023-02-28T12:07:46;2.93;;;2.50;;
3297;SDS011;1661;53.572;10.174;2023-02-28T12:10:24;4.37;;;2.70;;
3297;SDS011;1661;53.572;10.174;2023-02-28T12:13:06;3.60;;;2.47;;
3297;SDS011;1661;53.572;10.174;2023-02-28T12:15:47;9.33;;;2.60;;
3297;SDS011;1661;53.572;10.174;2023-02-28T12:18:39;2.30;;;2.10;;
3297;SDS011;1661;53.572;10.174;2023-02-28T12:21:18;2.27;;;2.07;;
3297;SDS011;1661;53.572;10.174;2023-02-28T12:23:58;2.10;;;1.90;;
3297;SDS011;1661;53.572;10.174;2023-02-28T12:26:38;2.93;;;2.10;;
3297;SDS011;1661;53.572;10.174;2023-02-28T12:29:10;3.97;;;2.63;;
3297;SDS011;1661;53.572;10.174;2023-02-28T12:31:43;2.30;;;1.77;;
3297;SDS011;1661;53.572;10.174;2023-02-28T12:34:15;9.33;;;2.33;;
3297;SDS011;1661;53.572;10.174;2023-02-28T12:36:46;4.60;;;2.73;;
3297;SDS011;1661;53.572;10.174;2023-02-28T12:39:16;2.47;;;1.87;;
3297;SDS011;1661;53.572;10.174;2023-02-28T12:41:51;2.40;;;1.50;;
3297;SDS011;1661;53.572;10.174;2023-02-28T12:44:21;2.77;;;1.77;;
3297;SDS011;1661;53.572;10.174;2023-02-28T12:47:01;5.50;;;2.40;;
3297;SDS011;1661;53.572;10.174;2023-02-28T12:49:36;3.70;;;1.77;;
3297;SDS011;1661;53.572;10.174;2023-02-28T12:52:08;3.77;;;1.90;;
3297;SDS011;1661;53.572;10.174;2023-02-28T12:54:42;2.50;;;1.93;;
3297;SDS011;1661;53.572;10.174;2023-02-28T12:57:17;3.10;;;2.00;;
3297;SDS011;1661;53.572;10.174;2023-02-28T12:59:52;3.63;;;1.90;;
3297;SDS011;1661;53.572;10.174;2023-02-28T13:02:45;2.73;;;2.53;;
3297;SDS011;1661;53.572;10.174;2023-02-28T13:05:30;2.03;;;1.83;;
3297;SDS011;1661;53.572;10.174;2023-02-28T13:08:17;2.63;;;2.00;;
3297;SDS011;1661;53.572;10.174;2023-02-28T13:11:01;1.80;;;1.70;;
3297;SDS011;1661;53.572;10.174;2023-02-28T13:13:30;2.10;;;1.90;;
3297;SDS011;1661;53.572;10.174;2023-02-28T13:15:58;3.10;;;2.20;;
3297;SDS011;1661;53.572;10.174;2023-02-28T13:18:28;2.50;;;2.17;;
3297;SDS011;1661;53.572;10.174;2023-02-28T13:20:57;2.60;;;1.93;;
3297;SDS011;1661;53.572;10.174;2023-02-28T13:23:36;2.20;;;2.00;;
3297;SDS011;1661;53.572;10.174;2023-02-28T13:26:23;2.73;;;2.40;;
3297;SDS011;1661;53.572;10.174;2023-02-28T13:29:31;4.20;;;2.17;;
3297;SDS011;1661;53.572;10.174;2023-02-28T13:38:12;1.67;;;1.57;;
3297;SDS011;1661;53.572;10.174;2023-02-28T13:44:16;1.83;;;1.30;;
3297;SDS011;1661;53.572;10.174;2023-02-28T13:49:55;2.27;;;2.07;;
3297;SDS011;1661;53.572;10.174;2023-02-28T13:52:47;3.23;;;2.63;;
3297;SDS011;1661;53.572;10.174;2023-02-28T13:55:24;5.40;;;2.13;;
3297;SDS011;1661;53.572;10.174;2023-02-28T13:58:04;2.00;;;1.80;;
3297;SDS011;1661;53.572;10.174;2023-02-28T14:00:43;3.03;;;1.87;;
3297;SDS011;1661;53.572;10.174;2023-02-28T14:03:29;4.50;;;2.23;;
3297;SDS011;1661;53.572;10.174;2023-02-28T14:06:15;5.13;;;2.17;;
3297;SDS011;1661;53.572;10.174;2023-02-28T14:08:52;2.60;;;1.77;;
3297;SDS011;1661;53.572;10.174;2023-02-28T14:11:25;3.60;;;2.03;;
3297;SDS011;1661;53.572;10.174;2023-02-28T14:13:55;4.57;;;2.47;;
3297;SDS011;1661;53.572;10.174;2023-02-28T14:16:23;2.50;;;2.27;;
3297;SDS011;1661;53.572;10.174;2023-02-28T14:18:56;1.70;;;1.40;;
3297;SDS011;1661;53.572;10.174;2023-02-28T14:21:27;2.40;;;2.20;;
3297;SDS011;1661;53.572;10.174;2023-02-28T14:24:00;3.10;;;2.23;;
3297;SDS011;1661;53.572;10.174;2023-02-28T14:26:49;2.50;;;2.30;;
3297;SDS011;1661;53.572;10.174;2023-02-28T14:32:32;2.70;;;1.50;;
3297;SDS011;1661;53.572;10.174;2023-02-28T14:35:10;2.67;;;2.30;;
3297;SDS011;1661;53.572;10.174;2023-02-28T14:37:45;2.60;;;2.40;;
3297;SDS011;1661;53.572;10.174;2023-02-28T14:40:14;6.13;;;2.50;;
3297;SDS011;1661;53.572;10.174;2023-02-28T14:42:49;2.47;;;2.10;;
3297;SDS011;1661;53.572;10.174;2023-02-28T14:45:22;2.03;;;1.83;;
3297;SDS011;1661;53.572;10.174;2023-02-28T14:47:50;5.30;;;1.90;;
3297;SDS011;1661;53.572;10.174;2023-02-28T14:50:19;6.20;;;2.93;;
3297;SDS011;1661;53.572;10.174;2023-02-28T14:52:50;2.87;;;2.57;;
3297;SDS011;1661;53.572;10.174;2023-02-28T14:55:20;3.10;;;1.90;;
3297;SDS011;1661;53.572;10.174;2023-02-28T14:57:53;3.73;;;2.07;;
3297;SDS011;1661;53.572;10.174;2023-02-28T15:00:23;3.00;;;2.27;;
3297;SDS011;1661;53.572;10.174;2023-02-28T15:02:50;3.47;;;2.90;;
3297;SDS011;1661;53.572;10.174;2023-02-28T15:05:24;2.30;;;2.10;;
3297;SDS011;1661;53.572;10.174;2023-02-28T15:08:05;3.60;;;2.90;;
3297;SDS011;1661;53.572;10.174;2023-02-28T15:10:37;2.80;;;2.50;;
3297;SDS011;1661;53.572;10.174;2023-02-28T15:13:05;6.30;;;3.03;;
3297;SDS011;1661;53.572;10.174;2023-02-28T15:15:40;5.90;;;2.90;;
3297;SDS011;1661;53.572;10.174;2023-02-28T15:18:11;4.03;;;2.43;;
3297;SDS011;1661;53.572;10.174;2023-02-28T15:20:50;3.73;;;2.30;;
3297;SDS011;1661;53.572;10.174;2023-02-28T15:23:18;3.90;;;3.10;;
3297;SDS011;1661;53.572;10.174;2023-02-28T15:25:47;4.80;;;2.67;;
3297;SDS011;1661;53.572;10.174;2023-02-28T15:28:17;3.77;;;2.30;;
3297;SDS011;1661;53.572;10.174;2023-02-28T15:30:56;3.13;;;1.97;;
3297;SDS011;1661;53.572;10.174;2023-02-28T15:33:25;3.07;;;2.30;;
3297;SDS011;1661;53.572;10.174;2023-02-28T15:36:04;2.63;;;2.43;;
3297;SDS011;1661;53.572;10.174;2023-02-28T15:38:37;3.57;;;3.00;;
3297;SDS011;1661;53.572;10.174;2023-02-28T15:41:03;3.50;;;2.23;;
3297;SDS011;1661;53.572;10.174;2023-02-28T15:43:34;2.40;;;2.20;;
3297;SDS011;1661;53.572;10.174;2023-02-28T15:46:02;4.53;;;2.20;;
3297;SDS011;1661;53.572;10.174;2023-02-28T15:48:32;2.20;;;1.87;;